sensor_id;sensor_type;location;lat;lon;timestamp;temperature;humidity
51996;DHT22;38010;53.264;6.592;2023-02-28T00:00:50;10.90;99.90
51996;DHT22;38010;53.264;6.592;2023-02-28T00:03:16;10.90;99.90
51996;DHT22;38010;53.264;6.592;2023-02-28T00:05:42;10.90;99.90
51996;DHT22;38010;53.264;6.592;2023-02-28T00:08:08;10.90;99.90
51996;DHT22;38010;53.264;6.592;2023-02-28T00:10:34;10.90;99.90
51996;DHT22;38010;53.264;6.592;2023-02-28T00:13:02;10.90;99.90
51996;DHT22;38010;53.264;6.592;2023-02-28T00:15:29;10.90;99.90
51996;DHT22;38010;53.264;6.592;2023-02-28T00:17:54;10.90;99.90
51996;DHT22;38010;53.264;6.592;2023-02-28T00:20:20;10.90;99.90
51996;DHT22;38010;53.264;6.592;2023-02-28T00:22:49;10.90;99.90
51996;DHT22;38010;53.264;6.592;2023-02-28T00:25:19;10.90;99.90
51996;DHT22;38010;53.264;6.592;2023-02-28T00:27:45;10.90;99.90
51996;DHT22;38010;53.264;6.592;2023-02-28T00:30:13;10.90;99.90
51996;DHT22;38010;53.264;6.592;2023-02-28T00:32:40;10.90;99.90
51996;DHT22;38010;53.264;6.592;2023-02-28T00:35:06;10.90;99.90
51996;DHT22;38010;53.264;6.592;2023-02-28T00:37:32;10.90;99.90
51996;DHT22;38010;53.264;6.592;2023-02-28T00:39:58;10.90;99.90
51996;DHT22;38010;53.264;6.592;2023-02-28T00:42:24;10.90;99.90
51996;DHT22;38010;53.264;6.592;2023-02-28T00:44:50;10.90;99.90
51996;DHT22;38010;53.264;6.592;2023-02-28T00:47:15;10.90;99.90
51996;DHT22;38010;53.264;6.592;2023-02-28T00:49:41;10.90;99.90
51996;DHT22;38010;53.264;6.592;2023-02-28T00:52:07;10.90;99.90
51996;DHT22;38010;53.264;6.592;2023-02-28T00:54:33;10.90;99.90
51996;DHT22;38010;53.264;6.592;2023-02-28T00:56:59;10.90;99.90
51996;DHT22;38010;53.264;6.592;2023-02-28T00:59:25;10.90;99.90
51996;DHT22;38010;53.264;6.592;2023-02-28T01:01:50;10.90;99.90
51996;DHT22;38010;53.264;6.592;2023-02-28T01:04:16;10.90;99.90
51996;DHT22;38010;53.264;6.592;2023-02-28T01:06:42;10.90;99.90
51996;DHT22;38010;53.264;6.592;2023-02-28T01:09:08;10.90;99.90
51996;DHT22;38010;53.264;6.592;2023-02-28T01:11:34;10.90;99.90
51996;DHT22;38010;53.264;6.592;2023-02-28T01:14:01;10.90;99.90
51996;DHT22;38010;53.264;6.592;2023-02-28T01:16:27;10.90;99.90
51996;DHT22;38010;53.264;6.592;2023-02-28T01:18:53;10.90;99.90
51996;DHT22;38010;53.264;6.592;2023-02-28T01:21:20;10.90;99.90
51996;DHT22;38010;53.264;6.592;2023-02-28T01:23:46;10.90;99.90
51996;DHT22;38010;53.264;6.592;2023-02-28T01:26:18;10.90;99.90
51996;DHT22;38010;53.264;6.592;2023-02-28T01:28:44;10.90;99.90
51996;DHT22;38010;53.264;6.592;2023-02-28T01:31:10;10.90;99.90
51996;DHT22;38010;53.264;6.592;2023-02-28T01:33:36;10.90;99.90
51996;DHT22;38010;53.264;6.592;2023-02-28T01:38:34;10.90;99.90
51996;DHT22;38010;53.264;6.592;2023-02-28T01:41:00;10.90;99.90
51996;DHT22;38010;53.264;6.592;2023-02-28T01:43:28;10.90;99.90
51996;DHT22;38010;53.264;6.592;2023-02-28T01:45:56;10.90;99.90
51996;DHT22;38010;53.264;6.592;2023-02-28T01:48:25;10.90;99.90
51996;DHT22;38010;53.264;6.592;2023-02-28T01:50:52;10.90;99.90
51996;DHT22;38010;53.264;6.592;2023-02-28T01:53:24;10.90;99.90
51996;DHT22;38010;53.264;6.592;2023-02-28T01:55:52;10.80;99.90
51996;DHT22;38010;53.264;6.592;2023-02-28T01:58:19;10.90;99.90
51996;DHT22;38010;53.264;6.592;2023-02-28T02:00:45;10.90;99.90
51996;DHT22;38010;53.264;6.592;2023-02-28T02:03:16;10.90;99.90
51996;DHT22;38010;53.264;6.592;2023-02-28T02:05:45;10.90;99.90
51996;DHT22;38010;53.264;6.592;2023-02-28T02:08:24;10.90;99.90
51996;DHT22;38010;53.264;6.592;2023-02-28T02:11:01;10.90;99.90
51996;DHT22;38010;53.264;6.592;2023-02-28T02:30:21;10.90;99.90
51996;DHT22;38010;53.264;6.592;2023-02-28T02:33:09;10.90;99.90
51996;DHT22;38010;53.264;6.592;2023-02-28T02:36:03;10.90;99.90
51996;DHT22;38010;53.264;6.592;2023-02-28T02:38:34;10.90;99.90
51996;DHT22;38010;53.264;6.592;2023-02-28T02:41:10;10.90;99.90
51996;DHT22;38010;53.264;6.592;2023-02-28T02:43:54;10.90;99.90
51996;DHT22;38010;53.264;6.592;2023-02-28T02:46:32;10.90;99.90
51996;DHT22;38010;53.264;6.592;2023-02-28T02:49:01;10.90;99.90
51996;DHT22;38010;53.264;6.592;2023-02-28T02:51:31;10.90;99.90
51996;DHT22;38010;53.264;6.592;2023-02-28T02:54:04;10.90;99.90
51996;DHT22;38010;53.264;6.592;2023-02-28T02:56:32;10.90;99.90
51996;DHT22;38010;53.264;6.592;2023-02-28T02:59:05;10.90;99.90
51996;DHT22;38010;53.264;6.592;2023-02-28T03:01:34;10.90;99.90
51996;DHT22;38010;53.264;6.592;2023-02-28T03:04:11;10.90;99.90
51996;DHT22;38010;53.264;6.592;2023-02-28T03:06:37;10.90;99.90
51996;DHT22;38010;53.264;6.592;2023-02-28T03:09:03;10.90;99.90
51996;DHT22;38010;53.264;6.592;2023-02-28T03:11:30;10.90;99.90
51996;DHT22;38010;53.264;6.592;2023-02-28T03:16:53;10.90;99.90
51996;DHT22;38010;53.264;6.592;2023-02-28T03:30:41;10.90;99.90
51996;DHT22;38010;53.264;6.592;2023-02-28T03:33:36;10.90;99.90
51996;DHT22;38010;53.264;6.592;2023-02-28T03:36:16;10.90;99.90
51996;DHT22;38010;53.264;6.592;2023-02-28T03:41:16;10.90;99.90
51996;DHT22;38010;53.264;6.592;2023-02-28T03:43:53;10.90;99.90
51996;DHT22;38010;53.264;6.592;2023-02-28T03:46:24;10.90;99.90
51996;DHT22;38010;53.264;6.592;2023-02-28T03:48:57;10.90;99.90
51996;DHT22;38010;53.264;6.592;2023-02-28T03:51:26;10.90;99.90
51996;DHT22;38010;53.264;6.592;2023-02-28T03:53:57;10.90;99.90
51996;DHT22;38010;53.264;6.592;2023-02-28T03:56:43;10.90;99.90
51996;DHT22;38010;53.264;6.592;2023-02-28T03:59:20;10.80;99.90
51996;DHT22;38010;53.264;6.592;2023-02-28T04:01:48;10.90;99.90
51996;DHT22;38010;53.264;6.592;2023-02-28T04:04:15;10.90;99.90
51996;DHT22;38010;53.264;6.592;2023-02-28T04:06:42;10.90;99.90
51996;DHT22;38010;53.264;6.592;2023-02-28T04:09:11;10.90;99.90
51996;DHT22;38010;53.264;6.592;2023-02-28T04:14:10;10.90;99.90
51996;DHT22;38010;53.264;6.592;2023-02-28T04:16:39;10.90;99.90
51996;DHT22;38010;53.264;6.592;2023-02-28T04:19:07;10.90;99.90
51996;DHT22;38010;53.264;6.592;2023-02-28T04:21:36;10.90;99.90
51996;DHT22;38010;53.264;6.592;2023-02-28T04:24:05;10.90;99.90
51996;DHT22;38010;53.264;6.592;2023-02-28T04:26:33;10.90;99.90
51996;DHT22;38010;53.264;6.592;2023-02-28T04:29:00;10.90;99.90
51996;DHT22;38010;53.264;6.592;2023-02-28T04:31:26;10.90;99.90
51996;DHT22;38010;53.264;6.592;2023-02-28T04:33:52;10.90;99.90
51996;DHT22;38010;53.264;6.592;2023-02-28T04:36:18;10.90;99.90
51996;DHT22;38010;53.264;6.592;2023-02-28T04:38:44;10.80;99.90
51996;DHT22;38010;53.264;6.592;2023-02-28T04:41:10;10.90;99.90
51996;DHT22;38010;53.264;6.592;2023-02-28T04:43:36;10.90;99.90
51996;DHT22;38010;53.264;6.592;2023-02-28T04:46:03;10.90;99.90
51996;DHT22;38010;53.264;6.592;2023-02-28T04:48:32;10.90;99.90
51996;DHT22;38010;53.264;6.592;2023-02-28T04:51:02;10.90;99.90
51996;DHT22;38010;53.264;6.592;2023-02-28T04:53:29;10.90;99.90
51996;DHT22;38010;53.264;6.592;2023-02-28T04:55:55;10.90;99.90
51996;DHT22;38010;53.264;6.592;2023-02-28T04:58:21;10.90;99.90
51996;DHT22;38010;53.264;6.592;2023-02-28T05:00:51;10.90;99.90
51996;DHT22;38010;53.264;6.592;2023-02-28T05:03:17;10.90;99.90
51996;DHT22;38010;53.264;6.592;2023-02-28T05:05:42;10.90;99.90
51996;DHT22;38010;53.264;6.592;2023-02-28T05:08:08;10.90;99.90
51996;DHT22;38010;53.264;6.592;2023-02-28T05:10:35;10.80;99.90
51996;DHT22;38010;53.264;6.592;2023-02-28T05:13:01;10.90;99.90
51996;DHT22;38010;53.264;6.592;2023-02-28T05:15:28;10.90;99.90
51996;DHT22;38010;53.264;6.592;2023-02-28T05:17:53;10.90;99.90
51996;DHT22;38010;53.264;6.592;2023-02-28T05:20:19;10.90;99.90
51996;DHT22;38010;53.264;6.592;2023-02-28T05:22:46;10.90;99.90
51996;DHT22;38010;53.264;6.592;2023-02-28T05:25:19;10.90;99.90
51996;DHT22;38010;53.264;6.592;2023-02-28T05:27:45;10.90;99.90
51996;DHT22;38010;53.264;6.592;2023-02-28T05:30:11;10.90;99.90
51996;DHT22;38010;53.264;6.592;2023-02-28T05:32:37;10.90;99.90
51996;DHT22;38010;53.264;6.592;2023-02-28T05:35:04;10.90;99.90
51996;DHT22;38010;53.264;6.592;2023-02-28T05:37:29;10.80;99.90
51996;DHT22;38010;53.264;6.592;2023-02-28T05:39:55;10.90;99.90
51996;DHT22;38010;53.264;6.592;2023-02-28T05:42:21;10.80;99.90
51996;DHT22;38010;53.264;6.592;2023-02-28T05:44:46;10.90;99.90
51996;DHT22;38010;53.264;6.592;2023-02-28T05:47:12;10.90;99.90
51996;DHT22;38010;53.264;6.592;2023-02-28T05:49:41;10.90;99.90
51996;DHT22;38010;53.264;6.592;2023-02-28T05:52:07;10.80;99.90
51996;DHT22;38010;53.264;6.592;2023-02-28T05:54:33;10.80;99.90
51996;DHT22;38010;53.264;6.592;2023-02-28T05:56:58;10.90;99.90
51996;DHT22;38010;53.264;6.592;2023-02-28T05:59:24;10.80;99.90
51996;DHT22;38010;53.264;6.592;2023-02-28T06:01:50;10.80;99.90
51996;DHT22;38010;53.264;6.592;2023-02-28T06:04:18;10.80;99.90
51996;DHT22;38010;53.264;6.592;2023-02-28T06:06:48;10.90;99.90
51996;DHT22;38010;53.264;6.592;2023-02-28T06:09:15;10.80;99.90
51996;DHT22;38010;53.264;6.592;2023-02-28T06:11:41;10.80;99.90
51996;DHT22;38010;53.264;6.592;2023-02-28T06:14:09;10.80;99.90
51996;DHT22;38010;53.264;6.592;2023-02-28T06:16:38;10.80;99.90
51996;DHT22;38010;53.264;6.592;2023-02-28T06:19:04;10.80;99.90
51996;DHT22;38010;53.264;6.592;2023-02-28T06:21:30;10.80;99.90
51996;DHT22;38010;53.264;6.592;2023-02-28T06:23:57;10.80;99.90
51996;DHT22;38010;53.264;6.592;2023-02-28T06:26:24;10.80;99.90
51996;DHT22;38010;53.264;6.592;2023-02-28T06:28:49;10.80;99.90
51996;DHT22;38010;53.264;6.592;2023-02-28T06:31:17;10.80;99.90
51996;DHT22;38010;53.264;6.592;2023-02-28T06:33:44;10.80;99.90
51996;DHT22;38010;53.264;6.592;2023-02-28T06:36:12;10.80;99.90
51996;DHT22;38010;53.264;6.592;2023-02-28T06:38:39;10.80;99.90
51996;DHT22;38010;53.264;6.592;2023-02-28T06:41:05;10.80;99.90
51996;DHT22;38010;53.264;6.592;2023-02-28T06:43:34;10.80;99.90
51996;DHT22;38010;53.264;6.592;2023-02-28T06:46:02;10.80;99.90
51996;DHT22;38010;53.264;6.592;2023-02-28T06:48:28;10.80;99.90
51996;DHT22;38010;53.264;6.592;2023-02-28T06:51:12;10.80;99.90
51996;DHT22;38010;53.264;6.592;2023-02-28T06:53:39;10.80;99.90
51996;DHT22;38010;53.264;6.592;2023-02-28T06:56:11;10.80;99.90
51996;DHT22;38010;53.264;6.592;2023-02-28T06:58:37;10.80;99.90
51996;DHT22;38010;53.264;6.592;2023-02-28T07:01:05;10.80;99.90
51996;DHT22;38010;53.264;6.592;2023-02-28T07:03:31;10.80;99.90
51996;DHT22;38010;53.264;6.592;2023-02-28T07:05:57;10.80;99.90
51996;DHT22;38010;53.264;6.592;2023-02-28T07:08:26;10.80;99.90
51996;DHT22;38010;53.264;6.592;2023-02-28T07:10:55;10.80;99.90
51996;DHT22;38010;53.264;6.592;2023-02-28T07:13:24;10.80;99.90
51996;DHT22;38010;53.264;6.592;2023-02-28T07:16:10;10.80;99.90
51996;DHT22;38010;53.264;6.592;2023-02-28T07:18:37;10.80;99.90
51996;DHT22;38010;53.264;6.592;2023-02-28T07:21:04;10.80;99.90
51996;DHT22;38010;53.264;6.592;2023-02-28T07:23:30;10.80;99.90
51996;DHT22;38010;53.264;6.592;2023-02-28T07:25:56;10.80;99.90
51996;DHT22;38010;53.264;6.592;2023-02-28T07:28:22;10.80;99.90
51996;DHT22;38010;53.264;6.592;2023-02-28T07:30:48;10.80;99.90
51996;DHT22;38010;53.264;6.592;2023-02-28T07:33:14;10.80;99.90
51996;DHT22;38010;53.264;6.592;2023-02-28T07:35:40;10.80;99.90
51996;DHT22;38010;53.264;6.592;2023-02-28T07:38:06;10.80;99.90
51996;DHT22;38010;53.264;6.592;2023-02-28T07:40:34;10.80;99.90
51996;DHT22;38010;53.264;6.592;2023-02-28T07:43:00;10.80;99.90
51996;DHT22;38010;53.264;6.592;2023-02-28T07:45:27;10.80;99.90
51996;DHT22;38010;53.264;6.592;2023-02-28T07:47:54;10.90;99.90
51996;DHT22;38010;53.264;6.592;2023-02-28T07:50:20;10.90;99.90
51996;DHT22;38010;53.264;6.592;2023-02-28T07:52:46;10.90;99.90
51996;DHT22;38010;53.264;6.592;2023-02-28T07:55:12;10.90;99.90
51996;DHT22;38010;53.264;6.592;2023-02-28T07:57:39;10.90;99.90
51996;DHT22;38010;53.264;6.592;2023-02-28T08:00:07;10.90;99.90
51996;DHT22;38010;53.264;6.592;2023-02-28T08:02:34;10.90;99.90
51996;DHT22;38010;53.264;6.592;2023-02-28T08:05:00;10.90;99.90
51996;DHT22;38010;53.264;6.592;2023-02-28T08:07:26;10.90;99.90
51996;DHT22;38010;53.264;6.592;2023-02-28T08:09:52;10.90;99.90
51996;DHT22;38010;53.264;6.592;2023-02-28T08:12:18;10.90;99.90
51996;DHT22;38010;53.264;6.592;2023-02-28T08:14:43;10.90;99.90
51996;DHT22;38010;53.264;6.592;2023-02-28T08:17:10;10.90;99.90
51996;DHT22;38010;53.264;6.592;2023-02-28T08:19:36;10.90;99.90
51996;DHT22;38010;53.264;6.592;2023-02-28T08:22:02;10.90;99.90
51996;DHT22;38010;53.264;6.592;2023-02-28T08:24:28;10.90;99.90
51996;DHT22;38010;53.264;6.592;2023-02-28T08:26:54;10.90;99.90
51996;DHT22;38010;53.264;6.592;2023-02-28T08:29:20;10.90;99.90
51996;DHT22;38010;53.264;6.592;2023-02-28T08:31:45;10.90;99.90
51996;DHT22;38010;53.264;6.592;2023-02-28T08:34:13;10.90;99.90
51996;DHT22;38010;53.264;6.592;2023-02-28T08:36:40;10.90;99.90
51996;DHT22;38010;53.264;6.592;2023-02-28T08:39:06;10.90;99.90
51996;DHT22;38010;53.264;6.592;2023-02-28T08:51:19;11.00;99.90
51996;DHT22;38010;53.264;6.592;2023-02-28T08:54:09;10.90;99.90
51996;DHT22;38010;53.264;6.592;2023-02-28T08:56:38;11.00;99.90
51996;DHT22;38010;53.264;6.592;2023-02-28T08:59:03;11.00;99.90
51996;DHT22;38010;53.264;6.592;2023-02-28T09:01:29;11.00;99.90
51996;DHT22;38010;53.264;6.592;2023-02-28T09:03:57;11.00;99.90
51996;DHT22;38010;53.264;6.592;2023-02-28T09:06:25;11.00;99.90
51996;DHT22;38010;53.264;6.592;2023-02-28T09:08:51;11.00;99.90
51996;DHT22;38010;53.264;6.592;2023-02-28T09:11:17;11.00;99.90
51996;DHT22;38010;53.264;6.592;2023-02-28T09:13:44;11.00;99.90
51996;DHT22;38010;53.264;6.592;2023-02-28T09:16:12;11.00;99.90
51996;DHT22;38010;53.264;6.592;2023-02-28T09:18:39;11.00;99.90
51996;DHT22;38010;53.264;6.592;2023-02-28T09:21:13;11.00;99.90
51996;DHT22;38010;53.264;6.592;2023-02-28T09:23:41;11.00;99.90
51996;DHT22;38010;53.264;6.592;2023-02-28T09:26:07;11.00;99.90
51996;DHT22;38010;53.264;6.592;2023-02-28T09:28:33;11.00;99.90
51996;DHT22;38010;53.264;6.592;2023-02-28T09:30:59;11.00;99.90
51996;DHT22;38010;53.264;6.592;2023-02-28T09:33:25;11.10;99.90
51996;DHT22;38010;53.264;6.592;2023-02-28T09:35:58;11.10;99.90
51996;DHT22;38010;53.264;6.592;2023-02-28T09:38:23;11.10;99.90
51996;DHT22;38010;53.264;6.592;2023-02-28T09:40:58;11.10;99.90
51996;DHT22;38010;53.264;6.592;2023-02-28T09:43:27;11.10;99.90
51996;DHT22;38010;53.264;6.592;2023-02-28T09:46:46;11.10;99.90
51996;DHT22;38010;53.264;6.592;2023-02-28T09:48:47;11.10;99.90
51996;DHT22;38010;53.264;6.592;2023-02-28T09:51:52;11.10;99.90
51996;DHT22;38010;53.264;6.592;2023-02-28T09:54:24;11.10;99.90
51996;DHT22;38010;53.264;6.592;2023-02-28T09:57:11;11.10;99.90
51996;DHT22;38010;53.264;6.592;2023-02-28T10:08:43;11.10;99.90
51996;DHT22;38010;53.264;6.592;2023-02-28T10:11:12;11.10;99.90
51996;DHT22;38010;53.264;6.592;2023-02-28T10:16:14;11.00;99.90
51996;DHT22;38010;53.264;6.592;2023-02-28T10:18:46;11.00;99.90
51996;DHT22;38010;53.264;6.592;2023-02-28T10:21:28;11.00;99.90
51996;DHT22;38010;53.264;6.592;2023-02-28T10:24:02;11.10;99.90
51996;DHT22;38010;53.264;6.592;2023-02-28T10:26:31;11.10;99.90
51996;DHT22;38010;53.264;6.592;2023-02-28T10:28:57;11.00;99.90
51996;DHT22;38010;53.264;6.592;2023-02-28T10:31:22;11.10;99.90
51996;DHT22;38010;53.264;6.592;2023-02-28T10:33:48;11.10;99.90
51996;DHT22;38010;53.264;6.592;2023-02-28T10:36:18;11.10;99.90
51996;DHT22;38010;53.264;6.592;2023-02-28T10:38:46;11.00;99.90
51996;DHT22;38010;53.264;6.592;2023-02-28T10:41:27;11.10;99.90
51996;DHT22;38010;53.264;6.592;2023-02-28T10:44:13;11.10;99.90
51996;DHT22;38010;53.264;6.592;2023-02-28T10:46:41;11.10;99.90
51996;DHT22;38010;53.264;6.592;2023-02-28T10:49:23;11.10;99.90
51996;DHT22;38010;53.264;6.592;2023-02-28T10:51:53;11.10;99.90
51996;DHT22;38010;53.264;6.592;2023-02-28T10:54:24;11.00;99.90
51996;DHT22;38010;53.264;6.592;2023-02-28T10:57:16;11.10;99.90
51996;DHT22;38010;53.264;6.592;2023-02-28T10:59:43;11.10;99.90
51996;DHT22;38010;53.264;6.592;2023-02-28T11:02:29;11.10;99.90
51996;DHT22;38010;53.264;6.592;2023-02-28T11:04:55;11.10;99.90
51996;DHT22;38010;53.264;6.592;2023-02-28T11:07:22;11.10;99.90
51996;DHT22;38010;53.264;6.592;2023-02-28T11:09:54;11.10;99.90
51996;DHT22;38010;53.264;6.592;2023-02-28T11:12:26;11.10;99.90
51996;DHT22;38010;53.264;6.592;2023-02-28T11:15:03;11.10;99.90
51996;DHT22;38010;53.264;6.592;2023-02-28T11:17:33;11.10;99.90
51996;DHT22;38010;53.264;6.592;2023-02-28T11:20:04;11.10;99.90
51996;DHT22;38010;53.264;6.592;2023-02-28T11:22:39;11.10;99.90
51996;DHT22;38010;53.264;6.592;2023-02-28T11:25:30;11.10;99.90
51996;DHT22;38010;53.264;6.592;2023-02-28T11:27:58;11.20;99.90
51996;DHT22;38010;53.264;6.592;2023-02-28T11:32:55;11.20;99.90
51996;DHT22;38010;53.264;6.592;2023-02-28T11:35:26;11.10;99.90
51996;DHT22;38010;53.264;6.592;2023-02-28T11:37:52;11.20;99.90
51996;DHT22;38010;53.264;6.592;2023-02-28T11:40:24;11.20;99.90
51996;DHT22;38010;53.264;6.592;2023-02-28T11:46:04;11.20;99.90
51996;DHT22;38010;53.264;6.592;2023-02-28T11:56:48;11.20;99.90
51996;DHT22;38010;53.264;6.592;2023-02-28T12:02:06;11.20;99.90
51996;DHT22;38010;53.264;6.592;2023-02-28T12:10:26;11.30;99.90
51996;DHT22;38010;53.264;6.592;2023-02-28T12:16:42;11.30;99.90
51996;DHT22;38010;53.264;6.592;2023-02-28T12:19:16;11.30;99.90
51996;DHT22;38010;53.264;6.592;2023-02-28T12:22:03;11.30;99.90
51996;DHT22;38010;53.264;6.592;2023-02-28T12:27:10;11.40;99.90
51996;DHT22;38010;53.264;6.592;2023-02-28T12:29:54;11.40;99.90
51996;DHT22;38010;53.264;6.592;2023-02-28T12:32:35;11.40;99.90
51996;DHT22;38010;53.264;6.592;2023-02-28T12:40:14;11.50;99.90
51996;DHT22;38010;53.264;6.592;2023-02-28T12:42:58;11.50;99.90
51996;DHT22;38010;53.264;6.592;2023-02-28T12:48:37;11.50;99.90
51996;DHT22;38010;53.264;6.592;2023-02-28T12:51:06;11.50;99.90
51996;DHT22;38010;53.264;6.592;2023-02-28T12:56:15;11.50;99.90
51996;DHT22;38010;53.264;6.592;2023-02-28T12:58:46;11.50;99.90
51996;DHT22;38010;53.264;6.592;2023-02-28T13:09:20;11.50;99.90
51996;DHT22;38010;53.264;6.592;2023-02-28T13:11:51;11.50;99.90
51996;DHT22;38010;53.264;6.592;2023-02-28T13:19:39;11.40;99.90
51996;DHT22;38010;53.264;6.592;2023-02-28T13:22:20;11.50;99.90
51996;DHT22;38010;53.264;6.592;2023-02-28T13:25:01;11.50;99.90
51996;DHT22;38010;53.264;6.592;2023-02-28T13:27:36;11.60;99.90
51996;DHT22;38010;53.264;6.592;2023-02-28T13:33:29;11.70;99.90
51996;DHT22;38010;53.264;6.592;2023-02-28T13:42:35;12.00;99.90
51996;DHT22;38010;53.264;6.592;2023-02-28T13:50:27;12.10;99.90
51996;DHT22;38010;53.264;6.592;2023-02-28T13:53:25;12.10;99.90
51996;DHT22;38010;53.264;6.592;2023-02-28T13:56:17;12.10;99.90
51996;DHT22;38010;53.264;6.592;2023-02-28T13:59:16;12.10;99.90
51996;DHT22;38010;53.264;6.592;2023-02-28T14:01:52;12.20;99.90
51996;DHT22;38010;53.264;6.592;2023-02-28T14:07:03;12.20;99.90
51996;DHT22;38010;53.264;6.592;2023-02-28T14:09:39;12.20;99.90
51996;DHT22;38010;53.264;6.592;2023-02-28T14:15:41;12.40;99.90
51996;DHT22;38010;53.264;6.592;2023-02-28T14:20:47;12.50;99.90
51996;DHT22;38010;53.264;6.592;2023-02-28T14:23:34;12.50;99.90
51996;DHT22;38010;53.264;6.592;2023-02-28T14:26:03;12.60;99.90
51996;DHT22;38010;53.264;6.592;2023-02-28T14:31:04;12.70;99.90
51996;DHT22;38010;53.264;6.592;2023-02-28T14:36:24;12.80;99.90
51996;DHT22;38010;53.264;6.592;2023-02-28T14:38:54;12.80;99.90
51996;DHT22;38010;53.264;6.592;2023-02-28T14:41:32;12.90;99.90
51996;DHT22;38010;53.264;6.592;2023-02-28T14:44:02;12.90;99.90
51996;DHT22;38010;53.264;6.592;2023-02-28T14:46:35;12.90;99.90
51996;DHT22;38010;53.264;6.592;2023-02-28T14:49:07;12.90;99.90
51996;DHT22;38010;53.264;6.592;2023-02-28T14:51:38;13.00;99.90
51996;DHT22;38010;53.264;6.592;2023-02-28T14:54:04;13.00;99.90
51996;DHT22;38010;53.264;6.592;2023-02-28T14:56:35;13.00;99.90
51996;DHT22;38010;53.264;6.592;2023-02-28T14:59:03;13.00;99.90
51996;DHT22;38010;53.264;6.592;2023-02-28T15:01:29;13.00;99.90
51996;DHT22;38010;53.264;6.592;2023-02-28T15:04:05;13.00;99.90
51996;DHT22;38010;53.264;6.592;2023-02-28T15:06:32;13.10;99.90
51996;DHT22;38010;53.264;6.592;2023-02-28T15:09:15;13.10;99.90
51996;DHT22;38010;53.264;6.592;2023-02-28T15:11:45;13.10;99.90
51996;DHT22;38010;53.264;6.592;2023-02-28T15:14:19;13.20;99.90
51996;DHT22;38010;53.264;6.592;2023-02-28T15:16:52;13.20;99.90
51996;DHT22;38010;53.264;6.592;2023-02-28T15:19:23;13.20;99.90
51996;DHT22;38010;53.264;6.592;2023-02-28T15:22:04;13.30;99.90
51996;DHT22;38010;53.264;6.592;2023-02-28T15:24:40;13.30;99.90
51996;DHT22;38010;53.264;6.592;2023-02-28T15:27:15;13.30;99.90
51996;DHT22;38010;53.264;6.592;2023-02-28T15:29:50;13.30;99.90
51996;DHT22;38010;53.264;6.592;2023-02-28T15:32:29;13.30;99.90
51996;DHT22;38010;53.264;6.592;2023-02-28T15:34:56;13.30;99.90
51996;DHT22;38010;53.264;6.592;2023-02-28T15:40:03;13.30;99.90
51996;DHT22;38010;53.264;6.592;2023-02-28T15:42:30;13.30;99.90
51996;DHT22;38010;53.264;6.592;2023-02-28T15:44:57;13.30;99.90
51996;DHT22;38010;53.264;6.592;2023-02-28T15:47:25;13.30;99.90
51996;DHT22;38010;53.264;6.592;2023-02-28T15:49:53;13.30;99.90
51996;DHT22;38010;53.264;6.592;2023-02-28T15:52:42;13.30;99.90
51996;DHT22;38010;53.264;6.592;2023-02-28T15:57:52;13.30;99.90
51996;DHT22;38010;53.264;6.592;2023-02-28T16:00:21;13.30;99.90
51996;DHT22;38010;53.264;6.592;2023-02-28T16:02:47;13.30;99.90
51996;DHT22;38010;53.264;6.592;2023-02-28T16:05:29;13.30;99.90
51996;DHT22;38010;53.264;6.592;2023-02-28T16:07:59;13.30;99.90
51996;DHT22;38010;53.264;6.592;2023-02-28T16:10:27;13.30;99.90
51996;DHT22;38010;53.264;6.592;2023-02-28T16:12:55;13.20;99.90
51996;DHT22;38010;53.264;6.592;2023-02-28T16:15:27;13.20;99.90
51996;DHT22;38010;53.264;6.592;2023-02-28T16:17:54;13.20;99.90
51996;DHT22;38010;53.264;6.592;2023-02-28T16:20:23;13.20;99.90
51996;DHT22;38010;53.264;6.592;2023-02-28T16:22:49;13.20;99.90
51996;DHT22;38010;53.264;6.592;2023-02-28T16:25:17;13.20;99.90
51996;DHT22;38010;53.264;6.592;2023-02-28T16:27:47;13.20;99.90
51996;DHT22;38010;53.264;6.592;2023-02-28T16:30:25;13.10;99.90
51996;DHT22;38010;53.264;6.592;2023-02-28T16:32:52;13.00;99.90
51996;DHT22;38010;53.264;6.592;2023-02-28T16:35:19;13.00;99.90
51996;DHT22;38010;53.264;6.592;2023-02-28T16:37:46;13.00;99.90
51996;DHT22;38010;53.264;6.592;2023-02-28T16:40:17;12.90;99.90
51996;DHT22;38010;53.264;6.592;2023-02-28T16:42:45;12.90;99.90
51996;DHT22;38010;53.264;6.592;2023-02-28T16:45:19;12.90;99.90
51996;DHT22;38010;53.264;6.592;2023-02-28T16:47:46;12.80;99.90
51996;DHT22;38010;53.264;6.592;2023-02-28T16:50:34;12.80;99.90
51996;DHT22;38010;53.264;6.592;2023-02-28T16:52:59;12.70;99.90
51996;DHT22;38010;53.264;6.592;2023-02-28T16:55:26;12.70;99.90
51996;DHT22;38010;53.264;6.592;2023-02-28T16:57:57;12.60;99.90
51996;DHT22;38010;53.264;6.592;2023-02-28T17:00:24;12.60;99.90
51996;DHT22;38010;53.264;6.592;2023-02-28T17:02:50;12.50;99.90
51996;DHT22;38010;53.264;6.592;2023-02-28T17:05:16;12.50;99.90
51996;DHT22;38010;53.264;6.592;2023-02-28T17:07:44;12.50;99.90
51996;DHT22;38010;53.264;6.592;2023-02-28T17:10:19;12.50;99.90
51996;DHT22;38010;53.264;6.592;2023-02-28T17:12:45;12.50;99.90
51996;DHT22;38010;53.264;6.592;2023-02-28T17:15:13;12.40;99.90
51996;DHT22;38010;53.264;6.592;2023-02-28T17:17:39;12.40;99.90
51996;DHT22;38010;53.264;6.592;2023-02-28T17:20:06;12.40;99.90
51996;DHT22;38010;53.264;6.592;2023-02-28T17:22:32;12.30;99.90
51996;DHT22;38010;53.264;6.592;2023-02-28T17:24:58;12.30;99.90
51996;DHT22;38010;53.264;6.592;2023-02-28T17:27:24;12.30;99.90
51996;DHT22;38010;53.264;6.592;2023-02-28T17:29:50;12.30;99.90
51996;DHT22;38010;53.264;6.592;2023-02-28T17:32:16;12.30;99.90
51996;DHT22;38010;53.264;6.592;2023-02-28T17:34:42;12.20;99.90
51996;DHT22;38010;53.264;6.592;2023-02-28T17:37:09;12.30;99.90
51996;DHT22;38010;53.264;6.592;2023-02-28T17:39:35;12.20;99.90
51996;DHT22;38010;53.264;6.592;2023-02-28T17:42:01;12.20;99.90
51996;DHT22;38010;53.264;6.592;2023-02-28T17:44:27;12.10;99.90
51996;DHT22;38010;53.264;6.592;2023-02-28T17:46:54;12.10;99.90
51996;DHT22;38010;53.264;6.592;2023-02-28T17:49:20;12.10;99.90
51996;DHT22;38010;53.264;6.592;2023-02-28T17:51:47;12.10;99.90
51996;DHT22;38010;53.264;6.592;2023-02-28T17:54:13;12.10;99.90
51996;DHT22;38010;53.264;6.592;2023-02-28T17:56:40;12.10;99.90
51996;DHT22;38010;53.264;6.592;2023-02-28T17:59:09;12.10;99.90
51996;DHT22;38010;53.264;6.592;2023-02-28T18:01:36;12.00;99.90
51996;DHT22;38010;53.264;6.592;2023-02-28T18:04:01;12.00;99.90
51996;DHT22;38010;53.264;6.592;2023-02-28T18:06:34;12.00;99.90
51996;DHT22;38010;53.264;6.592;2023-02-28T18:09:00;12.00;99.90
51996;DHT22;38010;53.264;6.592;2023-02-28T18:11:26;12.00;99.90
51996;DHT22;38010;53.264;6.592;2023-02-28T18:14:06;12.00;99.90